sensor_id;sensor_type;location;lat;lon;timestamp;pressure;altitude;pressure_sealevel;temperature
5571;BMP180;2808;51.240;6.794;2022-12-07T00:00:54;101187.00;;;5.40
5571;BMP180;2808;51.240;6.794;2022-12-07T00:03:22;101196.00;;;5.40
5571;BMP180;2808;51.240;6.794;2022-12-07T00:05:49;101202.00;;;5.40
5571;BMP180;2808;51.240;6.794;2022-12-07T00:08:17;101197.00;;;5.40
5571;BMP180;2808;51.240;6.794;2022-12-07T00:10:44;101189.00;;;5.40
5571;BMP180;2808;51.240;6.794;2022-12-07T00:13:11;101190.00;;;5.40
5571;BMP180;2808;51.240;6.794;2022-12-07T00:15:40;101197.00;;;5.40
5571;BMP180;2808;51.240;6.794;2022-12-07T00:18:07;101196.00;;;5.50
5571;BMP180;2808;51.240;6.794;2022-12-07T00:20:35;101183.00;;;5.50
5571;BMP180;2808;51.240;6.794;2022-12-07T00:23:02;101185.00;;;5.40
5571;BMP180;2808;51.240;6.794;2022-12-07T00:25:31;101199.00;;;5.50
5571;BMP180;2808;51.240;6.794;2022-12-07T00:27:58;101186.00;;;5.50
5571;BMP180;2808;51.240;6.794;2022-12-07T00:30:26;101189.00;;;5.50
5571;BMP180;2808;51.240;6.794;2022-12-07T00:32:54;101179.00;;;5.50
5571;BMP180;2808;51.240;6.794;2022-12-07T00:35:22;101186.00;;;5.50
5571;BMP180;2808;51.240;6.794;2022-12-07T00:37:49;101192.00;;;5.50
5571;BMP180;2808;51.240;6.794;2022-12-07T00:40:17;101184.00;;;5.50
5571;BMP180;2808;51.240;6.794;2022-12-07T00:42:45;101178.00;;;5.50
5571;BMP180;2808;51.240;6.794;2022-12-07T00:45:12;101180.00;;;5.50
5571;BMP180;2808;51.240;6.794;2022-12-07T00:47:40;101169.00;;;5.50
5571;BMP180;2808;51.240;6.794;2022-12-07T00:50:09;101175.00;;;5.50
5571;BMP180;2808;51.240;6.794;2022-12-07T00:52:36;101175.00;;;5.50
5571;BMP180;2808;51.240;6.794;2022-12-07T00:55:05;101167.00;;;5.50
5571;BMP180;2808;51.240;6.794;2022-12-07T00:57:34;101171.00;;;5.50
5571;BMP180;2808;51.240;6.794;2022-12-07T01:00:02;101172.00;;;5.50
5571;BMP180;2808;51.240;6.794;2022-12-07T01:02:29;101178.00;;;5.50
5571;BMP180;2808;51.240;6.794;2022-12-07T01:04:57;101176.00;;;5.50
5571;BMP180;2808;51.240;6.794;2022-12-07T01:07:25;101173.00;;;5.50
5571;BMP180;2808;51.240;6.794;2022-12-07T01:09:53;101168.00;;;5.50
5571;BMP180;2808;51.240;6.794;2022-12-07T01:12:20;101170.00;;;5.50
5571;BMP180;2808;51.240;6.794;2022-12-07T01:14:47;101166.00;;;5.50
5571;BMP180;2808;51.240;6.794;2022-12-07T01:17:15;101174.00;;;5.50
5571;BMP180;2808;51.240;6.794;2022-12-07T01:19:43;101175.00;;;5.50
5571;BMP180;2808;51.240;6.794;2022-12-07T01:22:10;101178.00;;;5.50
5571;BMP180;2808;51.240;6.794;2022-12-07T01:24:39;101180.00;;;5.50
5571;BMP180;2808;51.240;6.794;2022-12-07T01:27:06;101171.00;;;5.50
5571;BMP180;2808;51.240;6.794;2022-12-07T01:29:34;101176.00;;;5.50
5571;BMP180;2808;51.240;6.794;2022-12-07T01:32:01;101171.00;;;5.50
5571;BMP180;2808;51.240;6.794;2022-12-07T01:34:29;101169.00;;;5.50
5571;BMP180;2808;51.240;6.794;2022-12-07T01:36:56;101168.00;;;5.50
5571;BMP180;2808;51.240;6.794;2022-12-07T01:39:24;101161.00;;;5.50
5571;BMP180;2808;51.240;6.794;2022-12-07T01:41:54;101164.00;;;5.50
5571;BMP180;2808;51.240;6.794;2022-12-07T01:44:23;101176.00;;;5.50
5571;BMP180;2808;51.240;6.794;2022-12-07T01:46:52;101176.00;;;5.50
5571;BMP180;2808;51.240;6.794;2022-12-07T01:49:25;101172.00;;;5.50
5571;BMP180;2808;51.240;6.794;2022-12-07T01:52:05;101170.00;;;5.50
5571;BMP180;2808;51.240;6.794;2022-12-07T01:54:35;101164.00;;;5.50
5571;BMP180;2808;51.240;6.794;2022-12-07T01:57:05;101164.00;;;5.50
5571;BMP180;2808;51.240;6.794;2022-12-07T01:59:34;101162.00;;;5.50
5571;BMP180;2808;51.240;6.794;2022-12-07T02:02:04;101172.00;;;5.50
5571;BMP180;2808;51.240;6.794;2022-12-07T02:04:34;101170.00;;;5.40
5571;BMP180;2808;51.240;6.794;2022-12-07T02:07:03;101163.00;;;5.50
5571;BMP180;2808;51.240;6.794;2022-12-07T02:09:31;101157.00;;;5.50
5571;BMP180;2808;51.240;6.794;2022-12-07T02:11:59;101152.00;;;5.40
5571;BMP180;2808;51.240;6.794;2022-12-07T02:14:27;101157.00;;;5.40
5571;BMP180;2808;51.240;6.794;2022-12-07T02:17:04;101155.00;;;5.40
5571;BMP180;2808;51.240;6.794;2022-12-07T02:22:50;101156.00;;;5.30
5571;BMP180;2808;51.240;6.794;2022-12-07T02:25:27;101149.00;;;5.30
5571;BMP180;2808;51.240;6.794;2022-12-07T02:28:03;101154.00;;;5.30
5571;BMP180;2808;51.240;6.794;2022-12-07T02:30:37;101147.00;;;5.30
5571;BMP180;2808;51.240;6.794;2022-12-07T02:33:14;101150.00;;;5.30
5571;BMP180;2808;51.240;6.794;2022-12-07T02:35:46;101162.00;;;5.30
5571;BMP180;2808;51.240;6.794;2022-12-07T02:38:18;101159.00;;;5.30
5571;BMP180;2808;51.240;6.794;2022-12-07T02:40:51;101164.00;;;5.30
5571;BMP180;2808;51.240;6.794;2022-12-07T02:43:23;101151.00;;;5.30
5571;BMP180;2808;51.240;6.794;2022-12-07T02:45:55;101161.00;;;5.30
5571;BMP180;2808;51.240;6.794;2022-12-07T02:48:25;101160.00;;;5.30
5571;BMP180;2808;51.240;6.794;2022-12-07T02:50:54;101163.00;;;5.30
5571;BMP180;2808;51.240;6.794;2022-12-07T02:53:32;101149.00;;;5.30
5571;BMP180;2808;51.240;6.794;2022-12-07T02:56:06;101149.00;;;5.30
5571;BMP180;2808;51.240;6.794;2022-12-07T02:58:42;101163.00;;;5.30
5571;BMP180;2808;51.240;6.794;2022-12-07T03:01:23;101154.00;;;5.30
5571;BMP180;2808;51.240;6.794;2022-12-07T03:04:01;101146.00;;;5.30
5571;BMP180;2808;51.240;6.794;2022-12-07T03:06:34;101146.00;;;5.30
5571;BMP180;2808;51.240;6.794;2022-12-07T03:09:13;101152.00;;;5.30
5571;BMP180;2808;51.240;6.794;2022-12-07T03:11:46;101151.00;;;5.20
5571;BMP180;2808;51.240;6.794;2022-12-07T03:14:18;101146.00;;;5.20
5571;BMP180;2808;51.240;6.794;2022-12-07T03:16:55;101152.00;;;5.20
5571;BMP180;2808;51.240;6.794;2022-12-07T03:19:25;101156.00;;;5.20
5571;BMP180;2808;51.240;6.794;2022-12-07T03:21:56;101159.00;;;5.20
5571;BMP180;2808;51.240;6.794;2022-12-07T03:24:27;101150.00;;;5.20
5571;BMP180;2808;51.240;6.794;2022-12-07T03:27:01;101153.00;;;5.10
5571;BMP180;2808;51.240;6.794;2022-12-07T03:29:33;101160.00;;;5.10
5571;BMP180;2808;51.240;6.794;2022-12-07T03:32:06;101160.00;;;5.10
5571;BMP180;2808;51.240;6.794;2022-12-07T03:34:44;101150.00;;;5.10
5571;BMP180;2808;51.240;6.794;2022-12-07T03:37:17;101152.00;;;5.10
5571;BMP180;2808;51.240;6.794;2022-12-07T03:39:52;101150.00;;;5.10
5571;BMP180;2808;51.240;6.794;2022-12-07T03:42:24;101152.00;;;5.10
5571;BMP180;2808;51.240;6.794;2022-12-07T03:44:52;101150.00;;;5.00
5571;BMP180;2808;51.240;6.794;2022-12-07T03:47:26;101163.00;;;5.10
5571;BMP180;2808;51.240;6.794;2022-12-07T03:50:00;101146.00;;;5.00
5571;BMP180;2808;51.240;6.794;2022-12-07T03:52:33;101151.00;;;5.00
5571;BMP180;2808;51.240;6.794;2022-12-07T03:55:08;101150.00;;;5.00
5571;BMP180;2808;51.240;6.794;2022-12-07T03:57:38;101146.00;;;5.00
5571;BMP180;2808;51.240;6.794;2022-12-07T04:00:08;101151.00;;;5.00
5571;BMP180;2808;51.240;6.794;2022-12-07T04:02:38;101147.00;;;5.00
5571;BMP180;2808;51.240;6.794;2022-12-07T04:05:06;101150.00;;;5.00
5571;BMP180;2808;51.240;6.794;2022-12-07T04:07:34;101151.00;;;5.00
5571;BMP180;2808;51.240;6.794;2022-12-07T04:10:01;101153.00;;;5.00
5571;BMP180;2808;51.240;6.794;2022-12-07T04:12:29;101151.00;;;5.00
5571;BMP180;2808;51.240;6.794;2022-12-07T04:14:56;101147.00;;;5.00
5571;BMP180;2808;51.240;6.794;2022-12-07T04:17:23;101152.00;;;5.00
5571;BMP180;2808;51.240;6.794;2022-12-07T04:19:52;101153.00;;;5.00
5571;BMP180;2808;51.240;6.794;2022-12-07T04:22:20;101151.00;;;5.00
5571;BMP180;2808;51.240;6.794;2022-12-07T04:24:48;101150.00;;;5.00
5571;BMP180;2808;51.240;6.794;2022-12-07T04:27:15;101148.00;;;4.90
5571;BMP180;2808;51.240;6.794;2022-12-07T04:29:43;101148.00;;;4.90
5571;BMP180;2808;51.240;6.794;2022-12-07T04:32:10;101136.00;;;4.90
5571;BMP180;2808;51.240;6.794;2022-12-07T04:34:37;101139.00;;;4.90
5571;BMP180;2808;51.240;6.794;2022-12-07T04:37:06;101135.00;;;4.90
5571;BMP180;2808;51.240;6.794;2022-12-07T04:39:34;101140.00;;;4.90
5571;BMP180;2808;51.240;6.794;2022-12-07T04:42:02;101144.00;;;4.90
5571;BMP180;2808;51.240;6.794;2022-12-07T04:44:29;101139.00;;;4.90
5571;BMP180;2808;51.240;6.794;2022-12-07T04:46:57;101141.00;;;4.90
5571;BMP180;2808;51.240;6.794;2022-12-07T04:49:24;101130.00;;;4.90
5571;BMP180;2808;51.240;6.794;2022-12-07T04:51:52;101135.00;;;4.90
5571;BMP180;2808;51.240;6.794;2022-12-07T04:54:21;101130.00;;;4.90
5571;BMP180;2808;51.240;6.794;2022-12-07T04:56:49;101127.00;;;4.90
5571;BMP180;2808;51.240;6.794;2022-12-07T04:59:17;101123.00;;;4.90
5571;BMP180;2808;51.240;6.794;2022-12-07T05:01:45;101131.00;;;4.90
5571;BMP180;2808;51.240;6.794;2022-12-07T05:04:12;101127.00;;;4.90
5571;BMP180;2808;51.240;6.794;2022-12-07T05:06:39;101125.00;;;4.80
5571;BMP180;2808;51.240;6.794;2022-12-07T05:09:07;101130.00;;;4.80
5571;BMP180;2808;51.240;6.794;2022-12-07T05:11:39;101133.00;;;4.80
5571;BMP180;2808;51.240;6.794;2022-12-07T05:14:09;101138.00;;;4.80
5571;BMP180;2808;51.240;6.794;2022-12-07T05:16:37;101131.00;;;4.80
5571;BMP180;2808;51.240;6.794;2022-12-07T05:19:06;101138.00;;;4.80
5571;BMP180;2808;51.240;6.794;2022-12-07T05:21:33;101140.00;;;4.80
5571;BMP180;2808;51.240;6.794;2022-12-07T05:24:01;101139.00;;;4.80
5571;BMP180;2808;51.240;6.794;2022-12-07T05:26:29;101155.00;;;4.80
5571;BMP180;2808;51.240;6.794;2022-12-07T05:28:58;101154.00;;;4.80
5571;BMP180;2808;51.240;6.794;2022-12-07T05:31:28;101145.00;;;4.80
5571;BMP180;2808;51.240;6.794;2022-12-07T05:33:55;101142.00;;;4.80
5571;BMP180;2808;51.240;6.794;2022-12-07T05:36:23;101138.00;;;4.80
5571;BMP180;2808;51.240;6.794;2022-12-07T05:38:50;101144.00;;;4.80
5571;BMP180;2808;51.240;6.794;2022-12-07T05:41:18;101135.00;;;4.80
5571;BMP180;2808;51.240;6.794;2022-12-07T05:44:05;101136.00;;;4.80
5571;BMP180;2808;51.240;6.794;2022-12-07T05:46:33;101132.00;;;4.80
5571;BMP180;2808;51.240;6.794;2022-12-07T05:49:01;101136.00;;;4.80
5571;BMP180;2808;51.240;6.794;2022-12-07T05:51:29;101133.00;;;4.80
5571;BMP180;2808;51.240;6.794;2022-12-07T05:53:56;101130.00;;;4.80
5571;BMP180;2808;51.240;6.794;2022-12-07T05:56:24;101124.00;;;4.80
5571;BMP180;2808;51.240;6.794;2022-12-07T05:58:52;101133.00;;;4.80
5571;BMP180;2808;51.240;6.794;2022-12-07T06:01:38;101137.00;;;4.90
5571;BMP180;2808;51.240;6.794;2022-12-07T06:04:06;101130.00;;;4.80
5571;BMP180;2808;51.240;6.794;2022-12-07T06:06:33;101134.00;;;4.90
5571;BMP180;2808;51.240;6.794;2022-12-07T06:09:01;101135.00;;;4.90
5571;BMP180;2808;51.240;6.794;2022-12-07T06:11:28;101137.00;;;4.90
5571;BMP180;2808;51.240;6.794;2022-12-07T06:14:13;101134.00;;;4.90
5571;BMP180;2808;51.240;6.794;2022-12-07T06:16:42;101124.00;;;4.80
5571;BMP180;2808;51.240;6.794;2022-12-07T06:19:11;101126.00;;;4.80
5571;BMP180;2808;51.240;6.794;2022-12-07T06:21:39;101136.00;;;4.90
5571;BMP180;2808;51.240;6.794;2022-12-07T06:24:06;101137.00;;;4.90
5571;BMP180;2808;51.240;6.794;2022-12-07T06:26:34;101148.00;;;4.90
5571;BMP180;2808;51.240;6.794;2022-12-07T06:29:01;101149.00;;;4.90
5571;BMP180;2808;51.240;6.794;2022-12-07T06:31:29;101146.00;;;4.90
5571;BMP180;2808;51.240;6.794;2022-12-07T06:33:59;101142.00;;;4.90
5571;BMP180;2808;51.240;6.794;2022-12-07T06:36:27;101142.00;;;4.90
5571;BMP180;2808;51.240;6.794;2022-12-07T06:38:55;101141.00;;;4.90
5571;BMP180;2808;51.240;6.794;2022-12-07T06:41:23;101144.00;;;4.90
5571;BMP180;2808;51.240;6.794;2022-12-07T06:43:50;101139.00;;;4.90
5571;BMP180;2808;51.240;6.794;2022-12-07T06:46:17;101133.00;;;4.90
5571;BMP180;2808;51.240;6.794;2022-12-07T06:48:46;101136.00;;;4.90
5571;BMP180;2808;51.240;6.794;2022-12-07T06:51:14;101138.00;;;4.90
5571;BMP180;2808;51.240;6.794;2022-12-07T06:53:42;101148.00;;;4.90
5571;BMP180;2808;51.240;6.794;2022-12-07T06:56:09;101139.00;;;4.90
5571;BMP180;2808;51.240;6.794;2022-12-07T06:58:37;101143.00;;;4.90
5571;BMP180;2808;51.240;6.794;2022-12-07T07:01:09;101137.00;;;4.90
5571;BMP180;2808;51.240;6.794;2022-12-07T07:03:37;101137.00;;;4.90
5571;BMP180;2808;51.240;6.794;2022-12-07T07:06:05;101142.00;;;4.90
5571;BMP180;2808;51.240;6.794;2022-12-07T07:08:35;101150.00;;;4.90
5571;BMP180;2808;51.240;6.794;2022-12-07T07:11:02;101137.00;;;4.90
5571;BMP180;2808;51.240;6.794;2022-12-07T07:13:30;101147.00;;;4.90
5571;BMP180;2808;51.240;6.794;2022-12-07T07:16:00;101149.00;;;4.90
5571;BMP180;2808;51.240;6.794;2022-12-07T07:18:28;101145.00;;;4.90
5571;BMP180;2808;51.240;6.794;2022-12-07T07:20:56;101153.00;;;4.80
5571;BMP180;2808;51.240;6.794;2022-12-07T07:23:23;101144.00;;;4.90
5571;BMP180;2808;51.240;6.794;2022-12-07T07:25:52;101152.00;;;4.80
5571;BMP180;2808;51.240;6.794;2022-12-07T07:28:20;101154.00;;;4.80
5571;BMP180;2808;51.240;6.794;2022-12-07T07:30:47;101152.00;;;4.90
5571;BMP180;2808;51.240;6.794;2022-12-07T07:33:15;101147.00;;;4.80
5571;BMP180;2808;51.240;6.794;2022-12-07T07:35:45;101150.00;;;4.80
5571;BMP180;2808;51.240;6.794;2022-12-07T07:38:12;101157.00;;;4.90
5571;BMP180;2808;51.240;6.794;2022-12-07T07:40:42;101151.00;;;4.90
5571;BMP180;2808;51.240;6.794;2022-12-07T07:43:10;101155.00;;;4.90
5571;BMP180;2808;51.240;6.794;2022-12-07T07:45:38;101145.00;;;4.90
5571;BMP180;2808;51.240;6.794;2022-12-07T07:48:06;101149.00;;;5.00
5571;BMP180;2808;51.240;6.794;2022-12-07T07:50:34;101152.00;;;5.00
5571;BMP180;2808;51.240;6.794;2022-12-07T07:53:01;101157.00;;;5.10
5571;BMP180;2808;51.240;6.794;2022-12-07T07:55:29;101155.00;;;5.10
5571;BMP180;2808;51.240;6.794;2022-12-07T07:57:56;101161.00;;;5.10
5571;BMP180;2808;51.240;6.794;2022-12-07T08:00:25;101160.00;;;5.00
5571;BMP180;2808;51.240;6.794;2022-12-07T08:03:04;101160.00;;;4.90
5571;BMP180;2808;51.240;6.794;2022-12-07T08:05:32;101159.00;;;5.00
5571;BMP180;2808;51.240;6.794;2022-12-07T08:08:01;101162.00;;;5.00
5571;BMP180;2808;51.240;6.794;2022-12-07T08:10:31;101164.00;;;5.00
5571;BMP180;2808;51.240;6.794;2022-12-07T08:13:01;101163.00;;;5.00
5571;BMP180;2808;51.240;6.794;2022-12-07T08:15:44;101170.00;;;5.00
5571;BMP180;2808;51.240;6.794;2022-12-07T08:18:15;101177.00;;;5.10
5571;BMP180;2808;51.240;6.794;2022-12-07T08:20:46;101175.00;;;5.20
5571;BMP180;2808;51.240;6.794;2022-12-07T08:23:13;101180.00;;;5.30
5571;BMP180;2808;51.240;6.794;2022-12-07T08:25:41;101183.00;;;5.30
5571;BMP180;2808;51.240;6.794;2022-12-07T08:28:08;101177.00;;;5.30
5571;BMP180;2808;51.240;6.794;2022-12-07T08:30:36;101184.00;;;5.40
5571;BMP180;2808;51.240;6.794;2022-12-07T08:33:08;101185.00;;;5.40
5571;BMP180;2808;51.240;6.794;2022-12-07T08:35:43;101177.00;;;5.50
5571;BMP180;2808;51.240;6.794;2022-12-07T08:38:13;101180.00;;;5.40
5571;BMP180;2808;51.240;6.794;2022-12-07T08:40:45;101180.00;;;5.50
5571;BMP180;2808;51.240;6.794;2022-12-07T08:43:12;101184.00;;;5.60
5571;BMP180;2808;51.240;6.794;2022-12-07T08:45:50;101177.00;;;5.60
5571;BMP180;2808;51.240;6.794;2022-12-07T08:48:24;101176.00;;;5.60
5571;BMP180;2808;51.240;6.794;2022-12-07T08:50:55;101176.00;;;5.60
5571;BMP180;2808;51.240;6.794;2022-12-07T08:53:23;101173.00;;;5.50
5571;BMP180;2808;51.240;6.794;2022-12-07T08:55:51;101167.00;;;5.50
5571;BMP180;2808;51.240;6.794;2022-12-07T08:58:19;101175.00;;;5.50
5571;BMP180;2808;51.240;6.794;2022-12-07T09:00:46;101178.00;;;5.40
5571;BMP180;2808;51.240;6.794;2022-12-07T09:03:14;101164.00;;;5.40
5571;BMP180;2808;51.240;6.794;2022-12-07T09:05:42;101173.00;;;5.40
5571;BMP180;2808;51.240;6.794;2022-12-07T09:08:10;101170.00;;;5.50
5571;BMP180;2808;51.240;6.794;2022-12-07T09:10:38;101164.00;;;5.50
5571;BMP180;2808;51.240;6.794;2022-12-07T09:13:05;101174.00;;;5.60
5571;BMP180;2808;51.240;6.794;2022-12-07T09:15:33;101159.00;;;5.80
5571;BMP180;2808;51.240;6.794;2022-12-07T09:18:01;101168.00;;;5.80
5571;BMP180;2808;51.240;6.794;2022-12-07T09:20:30;101167.00;;;5.90
5571;BMP180;2808;51.240;6.794;2022-12-07T09:22:59;101166.00;;;5.90
5571;BMP180;2808;51.240;6.794;2022-12-07T09:25:30;101176.00;;;6.00
5571;BMP180;2808;51.240;6.794;2022-12-07T09:28:02;101159.00;;;6.00
5571;BMP180;2808;51.240;6.794;2022-12-07T09:30:33;101167.00;;;6.10
5571;BMP180;2808;51.240;6.794;2022-12-07T09:40:41;101172.00;;;6.10
5571;BMP180;2808;51.240;6.794;2022-12-07T09:43:27;101176.00;;;6.10
5571;BMP180;2808;51.240;6.794;2022-12-07T09:45:59;101184.00;;;6.20
5571;BMP180;2808;51.240;6.794;2022-12-07T09:48:44;101179.00;;;6.30
5571;BMP180;2808;51.240;6.794;2022-12-07T09:51:17;101180.00;;;6.40
5571;BMP180;2808;51.240;6.794;2022-12-07T09:56:55;101177.00;;;6.50
5571;BMP180;2808;51.240;6.794;2022-12-07T09:59:41;101166.00;;;6.50
5571;BMP180;2808;51.240;6.794;2022-12-07T10:05:49;101164.00;;;6.50
5571;BMP180;2808;51.240;6.794;2022-12-07T10:08:33;101164.00;;;6.50
5571;BMP180;2808;51.240;6.794;2022-12-07T10:11:04;101164.00;;;6.50
5571;BMP180;2808;51.240;6.794;2022-12-07T10:13:39;101148.00;;;6.60
5571;BMP180;2808;51.240;6.794;2022-12-07T10:16:24;101151.00;;;6.60
5571;BMP180;2808;51.240;6.794;2022-12-07T10:18:56;101154.00;;;6.60
5571;BMP180;2808;51.240;6.794;2022-12-07T10:21:25;101152.00;;;6.60
5571;BMP180;2808;51.240;6.794;2022-12-07T10:24:01;101149.00;;;6.70
5571;BMP180;2808;51.240;6.794;2022-12-07T10:26:33;101141.00;;;6.70
5571;BMP180;2808;51.240;6.794;2022-12-07T10:29:14;101144.00;;;6.70
5571;BMP180;2808;51.240;6.794;2022-12-07T10:31:42;101150.00;;;6.70
5571;BMP180;2808;51.240;6.794;2022-12-07T10:34:22;101146.00;;;6.70
5571;BMP180;2808;51.240;6.794;2022-12-07T10:36:53;101137.00;;;6.70
5571;BMP180;2808;51.240;6.794;2022-12-07T10:39:23;101136.00;;;6.70
5571;BMP180;2808;51.240;6.794;2022-12-07T10:41:54;101135.00;;;6.80
5571;BMP180;2808;51.240;6.794;2022-12-07T10:44:26;101136.00;;;6.70
5571;BMP180;2808;51.240;6.794;2022-12-07T10:47:21;101125.00;;;6.60
5571;BMP180;2808;51.240;6.794;2022-12-07T10:50:17;101130.00;;;6.60
5571;BMP180;2808;51.240;6.794;2022-12-07T10:53:05;101131.00;;;6.50
5571;BMP180;2808;51.240;6.794;2022-12-07T10:55:50;101131.00;;;6.50
5571;BMP180;2808;51.240;6.794;2022-12-07T10:58:31;101119.00;;;6.50
5571;BMP180;2808;51.240;6.794;2022-12-07T11:01:23;101115.00;;;6.50
5571;BMP180;2808;51.240;6.794;2022-12-07T11:04:17;101107.00;;;6.50
5571;BMP180;2808;51.240;6.794;2022-12-07T11:07:32;101114.00;;;6.60
5571;BMP180;2808;51.240;6.794;2022-12-07T11:10:15;101104.00;;;6.70
5571;BMP180;2808;51.240;6.794;2022-12-07T11:13:13;101105.00;;;6.70
5571;BMP180;2808;51.240;6.794;2022-12-07T11:16:02;101093.00;;;6.70
5571;BMP180;2808;51.240;6.794;2022-12-07T11:18:46;101096.00;;;6.70
5571;BMP180;2808;51.240;6.794;2022-12-07T11:21:23;101092.00;;;6.90
5571;BMP180;2808;51.240;6.794;2022-12-07T11:24:01;101094.00;;;7.00
5571;BMP180;2808;51.240;6.794;2022-12-07T11:26:42;101082.00;;;7.00
5571;BMP180;2808;51.240;6.794;2022-12-07T11:32:21;101078.00;;;7.10
5571;BMP180;2808;51.240;6.794;2022-12-07T11:35:15;101085.00;;;7.20
5571;BMP180;2808;51.240;6.794;2022-12-07T11:37:46;101080.00;;;7.20
5571;BMP180;2808;51.240;6.794;2022-12-07T11:40:34;101079.00;;;7.20
5571;BMP180;2808;51.240;6.794;2022-12-07T11:45:56;101067.00;;;7.40
5571;BMP180;2808;51.240;6.794;2022-12-07T15:29:49;100904.00;;;6.50
5571;BMP180;2808;51.240;6.794;2022-12-07T15:32:42;100906.00;;;6.50
5571;BMP180;2808;51.240;6.794;2022-12-07T15:36:20;100896.00;;;6.50
5571;BMP180;2808;51.240;6.794;2022-12-07T15:39:25;100904.00;;;6.60
5571;BMP180;2808;51.240;6.794;2022-12-07T17:34:48;100857.00;;;6.10
5571;BMP180;2808;51.240;6.794;2022-12-07T17:37:18;100854.00;;;6.10
5571;BMP180;2808;51.240;6.794;2022-12-07T17:39:48;100844.00;;;6.10
5571;BMP180;2808;51.240;6.794;2022-12-07T17:42:15;100847.00;;;6.10
5571;BMP180;2808;51.240;6.794;2022-12-07T17:45:00;100848.00;;;6.10
5571;BMP180;2808;51.240;6.794;2022-12-07T17:47:28;100852.00;;;6.10
5571;BMP180;2808;51.240;6.794;2022-12-07T17:49:57;100838.00;;;6.00
5571;BMP180;2808;51.240;6.794;2022-12-07T17:52:25;100844.00;;;6.00
5571;BMP180;2808;51.240;6.794;2022-12-07T17:55:10;100839.00;;;6.00
5571;BMP180;2808;51.240;6.794;2022-12-07T17:57:40;100833.00;;;6.00
5571;BMP180;2808;51.240;6.794;2022-12-07T18:00:08;100833.00;;;6.00
5571;BMP180;2808;51.240;6.794;2022-12-07T18:02:36;100823.00;;;5.90
5571;BMP180;2808;51.240;6.794;2022-12-07T18:05:06;100829.00;;;5.90
5571;BMP180;2808;51.240;6.794;2022-12-07T18:07:34;100836.00;;;5.90
5571;BMP180;2808;51.240;6.794;2022-12-07T18:10:02;100832.00;;;5.90
5571;BMP180;2808;51.240;6.794;2022-12-07T18:12:32;100825.00;;;5.90
5571;BMP180;2808;51.240;6.794;2022-12-07T18:14:59;100813.00;;;5.80
5571;BMP180;2808;51.240;6.794;2022-12-07T18:17:27;100813.00;;;5.80
5571;BMP180;2808;51.240;6.794;2022-12-07T18:19:54;100820.00;;;5.80
5571;BMP180;2808;51.240;6.794;2022-12-07T18:22:23;100816.00;;;5.80
5571;BMP180;2808;51.240;6.794;2022-12-07T18:24:50;100813.00;;;5.80
5571;BMP180;2808;51.240;6.794;2022-12-07T18:27:18;100818.00;;;5.80
5571;BMP180;2808;51.240;6.794;2022-12-07T18:29:47;100813.00;;;5.80
5571;BMP180;2808;51.240;6.794;2022-12-07T18:32:15;100808.00;;;5.80
5571;BMP180;2808;51.240;6.794;2022-12-07T18:34:42;100815.00;;;5.80
5571;BMP180;2808;51.240;6.794;2022-12-07T18:37:09;100806.00;;;5.80
5571;BMP180;2808;51.240;6.794;2022-12-07T18:39:41;100803.00;;;5.80
5571;BMP180;2808;51.240;6.794;2022-12-07T18:42:09;100807.00;;;5.80
5571;BMP180;2808;51.240;6.794;2022-12-07T18:44:37;100807.00;;;5.80
5571;BMP180;2808;51.240;6.794;2022-12-07T18:47:04;100801.00;;;5.80
5571;BMP180;2808;51.240;6.794;2022-12-07T18:49:32;100801.00;;;5.80
5571;BMP180;2808;51.240;6.794;2022-12-07T18:51:59;100810.00;;;5.80
5571;BMP180;2808;51.240;6.794;2022-12-07T18:54:31;100809.00;;;5.80
5571;BMP180;2808;51.240;6.794;2022-12-07T18:57:00;100799.00;;;5.80
5571;BMP180;2808;51.240;6.794;2022-12-07T18:59:30;100806.00;;;5.70
5571;BMP180;2808;51.240;6.794;2022-12-07T19:02:13;100810.00;;;5.70
5571;BMP180;2808;51.240;6.794;2022-12-07T19:04:40;100809.00;;;5.70
5571;BMP180;2808;51.240;6.794;2022-12-07T19:07:08;100800.00;;;5.60
5571;BMP180;2808;51.240;6.794;2022-12-07T19:09:43;100803.00;;;5.60
5571;BMP180;2808;51.240;6.794;2022-12-07T19:12:13;100799.00;;;5.60
5571;BMP180;2808;51.240;6.794;2022-12-07T19:14:40;100796.00;;;5.60
5571;BMP180;2808;51.240;6.794;2022-12-07T19:17:09;100797.00;;;5.60
5571;BMP180;2808;51.240;6.794;2022-12-07T19:19:39;100793.00;;;5.60
5571;BMP180;2808;51.240;6.794;2022-12-07T19:22:08;100795.00;;;5.60
5571;BMP180;2808;51.240;6.794;2022-12-07T19:24:36;100790.00;;;5.60
5571;BMP180;2808;51.240;6.794;2022-12-07T19:27:04;100794.00;;;5.50
5571;BMP180;2808;51.240;6.794;2022-12-07T19:29:33;100785.00;;;5.50
5571;BMP180;2808;51.240;6.794;2022-12-07T19:32:03;100777.00;;;5.60
5571;BMP180;2808;51.240;6.794;2022-12-07T19:34:33;100775.00;;;5.50
5571;BMP180;2808;51.240;6.794;2022-12-07T19:37:00;100779.00;;;5.50
5571;BMP180;2808;51.240;6.794;2022-12-07T19:39:28;100784.00;;;5.50
5571;BMP180;2808;51.240;6.794;2022-12-07T19:41:58;100781.00;;;5.50
5571;BMP180;2808;51.240;6.794;2022-12-07T19:44:28;100773.00;;;5.50
5571;BMP180;2808;51.240;6.794;2022-12-07T19:47:05;100771.00;;;5.50
5571;BMP180;2808;51.240;6.794;2022-12-07T19:49:33;100776.00;;;5.50
5571;BMP180;2808;51.240;6.794;2022-12-07T19:52:28;100775.00;;;5.50
5571;BMP180;2808;51.240;6.794;2022-12-07T19:54:56;100779.00;;;5.60
5571;BMP180;2808;51.240;6.794;2022-12-07T19:57:24;100774.00;;;5.50
5571;BMP180;2808;51.240;6.794;2022-12-07T19:59:51;100774.00;;;5.50
5571;BMP180;2808;51.240;6.794;2022-12-07T20:02:20;100775.00;;;5.50
5571;BMP180;2808;51.240;6.794;2022-12-07T20:04:53;100777.00;;;5.50
5571;BMP180;2808;51.240;6.794;2022-12-07T20:07:22;100773.00;;;5.50
5571;BMP180;2808;51.240;6.794;2022-12-07T20:09:56;100766.00;;;5.50
5571;BMP180;2808;51.240;6.794;2022-12-07T20:12:30;100761.00;;;5.50
5571;BMP180;2808;51.240;6.794;2022-12-07T20:15:23;100764.00;;;5.50
5571;BMP180;2808;51.240;6.794;2022-12-07T20:18:12;100766.00;;;5.40
5571;BMP180;2808;51.240;6.794;2022-12-07T20:20:43;100766.00;;;5.50
5571;BMP180;2808;51.240;6.794;2022-12-07T20:23:18;100759.00;;;5.40
5571;BMP180;2808;51.240;6.794;2022-12-07T20:25:48;100762.00;;;5.40
5571;BMP180;2808;51.240;6.794;2022-12-07T20:28:19;100757.00;;;5.40
5571;BMP180;2808;51.240;6.794;2022-12-07T20:30:50;100754.00;;;5.40
5571;BMP180;2808;51.240;6.794;2022-12-07T20:33:31;100760.00;;;5.40
5571;BMP180;2808;51.240;6.794;2022-12-07T20:35:59;100746.00;;;5.40
5571;BMP180;2808;51.240;6.794;2022-12-07T20:38:36;100750.00;;;5.30
5571;BMP180;2808;51.240;6.794;2022-12-07T20:41:09;100745.00;;;5.30
5571;BMP180;2808;51.240;6.794;2022-12-07T20:43:58;100741.00;;;5.30
5571;BMP180;2808;51.240;6.794;2022-12-07T20:46:28;100741.00;;;5.30
5571;BMP180;2808;51.240;6.794;2022-12-07T20:48:59;100730.00;;;5.30
5571;BMP180;2808;51.240;6.794;2022-12-07T20:51:31;100735.00;;;5.20
5571;BMP180;2808;51.240;6.794;2022-12-07T20:53:59;100734.00;;;5.20
5571;BMP180;2808;51.240;6.794;2022-12-07T20:56:43;100738.00;;;5.20